Overview Statistics Trail Chart Weather Telemetry Raw packets
 

This is the latest recevied weather packets stored in our database for station/object W7BTL. If no packets are shown the sender has not sent any weather packets the latest 10 day(s).

<< 72 73 74 75 76 77 78 >>
Time Temp. Humidity Pressure Rain* Wind** Luminosity Snow
1788138990 27.78° C 60% 1010 hPa 0 mm - 74 W/m² -
1788138686 28.33° C 59% 1009.9 hPa 0 mm - 83 W/m² -
1788138382 28.33° C 58% 1009.8 hPa 0 mm - 93 W/m² -
1788138077 28.89° C 57% 1009.7 hPa 0 mm - 105 W/m² -
1788137777 29.44° C 55% 1009.7 hPa 0 mm - 115 W/m² -
1788137472 30° C 53% 1009.7 hPa 0 mm - 130 W/m² -
1788137168 30° C 53% 1009.7 hPa 0 mm - 142 W/m² -
1788136863 30.56° C 52% 1009.7 hPa 0 mm - 160 W/m² -
1788136560 31.11° C 50% 1010 hPa 0 mm - 178 W/m² -
1788136255 31.11° C 50% 1009.7 hPa 0 mm - 196 W/m² -
1788135953 31.67° C 49% 1009.7 hPa 0 mm - 214 W/m² -
1788135649 31.67° C 48% 1010 hPa 0 mm - 233 W/m² -
1788135344 32.22° C 47% 1009.4 hPa 0 mm - 244 W/m² -
1788135041 32.22° C 47% 1009.6 hPa 0 mm - 271 W/m² -
1788134737 32.22° C 46% 1009.6 hPa 0 mm - 290 W/m² -
1788134436 32.22° C 45% 1009.6 hPa 0 mm - 310 W/m² -
1788134135 32.22° C 45% 1009.6 hPa 0 mm - 330 W/m² -
1788133830 32.78° C 44% 1009.5 hPa 0 mm - 351 W/m² -
1788133525 32.78° C 44% 1009.4 hPa 0 mm - 362 W/m² -
1788133221 33.33° C 45% 1009.6 hPa 0 mm - 392 W/m² -
1788132916 33.89° C 43% 1009.4 hPa 0 mm - 412 W/m² -
1788132612 33.89° C 43% 1009.7 hPa 0 mm - 433 W/m² -
1788132308 33.89° C 42% 1009.6 hPa 0 mm - 455 W/m² -
1788132004 33.89° C 44% 1009.7 hPa 0 mm - 474 W/m² -
1788131699 33.33° C 45% 1009.9 hPa 0 mm - 499 W/m² -

* Rain latest hour (hover to see other rain measurements)
** Current wind speed in m/s (hover to see current wind gust speed)